ADDS METAR Data INFO
IDs: Format: Raw Decoded Include TAF

Data at: 0350 UTC 20 Feb 2018

KOKK 200256Z AUTO 16009KT 10SM -RA BKN065 OVC080 14/14 A2996 RMK AO2 SLP147 P0001 60004 T01440139 58009
KOKK 200156Z AUTO 26005KT 10SM -RA OVC060 15/14 A2999 RMK AO2 RAB00E14B36 SLP156 P0001 T01500139
KOKK 200056Z AUTO 21011KT 10SM OVC065 16/14 A2999 RMK AO2 RAE51 SLP156 P0002 T01610139
KOKK 192356Z AUTO 21017G23KT 9SM RA FEW055 BKN070 OVC095 16/14 A2998 RMK AO2 PK WND 21027/2310 SLP155 P0003 60016 T01610139 10167 20139 51029
KOKK 192256Z AUTO 20020G25KT 10SM -RA OVC100 16/14 A2996 RMK AO2 PK WND 20030/2200 SLP150 P0003 T01560139
KOKK 192156Z AUTO 21021G26KT 9SM -RA FEW070 OVC090 16/14 A2997 RMK AO2 PK WND 19036/2058 SLP151 P0003 T01560139
KOKK 192056Z AUTO 19025G31KT 8SM -RA FEW019 BKN075 OVC090 15/14 A2989 RMK AO2 PK WND 19031/2050 SLP127 P0002 60007 T01500139 58011
KOKK 192052Z AUTO 19022G31KT 8SM -RA FEW019 BKN070 OVC090 15/14 A2990 RMK AO2 PK WND 19031/2050 P0002
KOKK 191956Z AUTO 21015G22KT 10SM -RA BKN017 OVC023 15/14 A2993 RMK AO2 PK WND 21030/1927 SLP140 P0001 T01500139
KOKK 191856Z AUTO 21019G26KT 10SM -RA OVC015 15/14 A2993 RMK AO2 PK WND 21028/1823 SLP139 P0004 T01500139
KOKK 191809Z AUTO 20018KT 9SM -RA BKN015 OVC020 14/14 A2993 RMK AO2 P0001
KOKK 191756Z AUTO 20018G23KT 7SM -RA BKN013 OVC019 14/14 A2994 RMK AO2 SLP141 P0007 60083 T01390139 10139 20089 58009
KOKK 191742Z AUTO 19014KT 5SM -RA BR BKN013 OVC019 13/13 A2994 RMK AO2 P0007
KOKK 191656Z AUTO 17012KT 3SM -RA BR SCT005 SCT008 OVC015 11/11 A2996 RMK AO2 RAB08 SLP150 P0008 T01060106
KOKK 191649Z AUTO 16011KT 3SM -RA BR BKN005 BKN010 OVC015 11/10 A2996 RMK AO2 RAB08 P0007
KOKK 191637Z AUTO 16009KT 2 1/2SM RA BR OVC003 10/10 A2997 RMK AO2 RAB08 CIG 003V008 P0004
KOKK 191556Z AUTO 14010KT 4SM BR OVC003 09/09 A2996 RMK AO2 RAE08B34E47 SLP150 P0001 T00940089
KOKK 191522Z AUTO 15010KT 8SM OVC005 09/09 A2997 RMK AO2 RAE08 CIG 004V009 P0001
KOKK 191506Z AUTO 15011KT 10SM -RA BKN008 OVC012 09/09 A2997 RMK AO2 P0001
KOKK 191456Z AUTO 15009KT 10SM -RA OVC011 09/09 A2996 RMK AO2 CIG 008V014 SLP154 P0024 60067 T00890089 55000
KOKK 191446Z AUTO 15008KT 10SM -RA BKN011 OVC019 09/09 A2996 RMK AO2 P0024
KOKK 191429Z AUTO 18012KT 7SM -RA SCT016 BKN020 OVC031 09/09 A2996 RMK AO2 P0024
KOKK 191420Z AUTO 18015KT 4SM RA BR FEW003 BKN030 OVC037 09/09 A2996 RMK AO2 P0022
KOKK 191411Z AUTO 18014KT 3SM RA BR FEW003 BKN029 OVC037 11/10 A2995 RMK AO2 P0019
KOKK 191402Z AUTO 19014KT 1 1/2SM +RA BR SCT005 BKN019 OVC036 10/10 A2996 RMK AO2 P0011
KOKK 191355Z AUTO 18009KT 1 1/2SM +RA BR SCT005 BKN014 OVC030 09/09 A2995 RMK AO2 SLP151 P0042 T00940089
KOKK 191354Z AUTO 18009KT 1 1/2SM +RA BR SCT005 BKN014 OVC032 09/09 A2996 RMK AO2 P0039
KOKK 191346Z AUTO 18008KT 2SM +RA BR SCT007 BKN016 OVC028 09/09 A2996 RMK AO2 VIS 1 1/2V3 P0019
KOKK 191256Z AUTO 19009KT 8SM -RA OVC007 09/08 A2997 RMK AO2 SLP154 P0001 T00890083
KOKK 191205Z AUTO 20010KT 10SM BKN007 OVC020 08/07 A2997 RMK AO2 RAE05 CIG 006V011 P0000
KOKK 191156Z AUTO 20010KT 10SM -RA SCT009 OVC020 08/07 A2996 RMK AO2 SLP154 P0002 60011 70011 T00780072 10078 20044 51015
KOKK 191142Z AUTO 19012KT 10SM -RA SCT009 OVC020 08/07 A2996 RMK AO2 P0002
KOKK 191126Z AUTO 20013KT 10SM -RA BKN011 OVC018 07/07 A2997 RMK AO2 P0001
KOKK 191056Z AUTO 19011KT 10SM -RA OVC018 07/06 A2996 RMK AO2 SLP153 P0001 T00720061
KOKK 190956Z AUTO 20016KT 10SM -RA OVC018 07/05 A2994 RMK AO2 SLP146 P0006 T00720050
KOKK 190907Z AUTO 19018G21KT 9SM -RA BKN018 BKN027 OVC034 07/04 A2992 RMK AO2 LTG DSNT N AND NE P0003
KOKK 190856Z AUTO 19016KT 10SM -RA FEW024 BKN030 OVC041 07/04 A2992 RMK AO2 LTG DSNT N TSB0758E13 SLP139 P0002 60002 T00670039 58021
KOKK 190819Z AUTO 17017KT 10SM -RA FEW041 BKN050 OVC095 06/03 A2992 RMK AO2 TSB0758E13 PRESFR P0002 TSNO
KOKK 190804Z AUTO 18017G23KT 9SM VCTS -RA FEW050 OVC095 06/02 A2994 RMK AO2 TSB0758 P0001
KOKK 190756Z AUTO 18012KT 10SM -RA FEW050 OVC095 06/02 A2995 RMK AO2 RAB40 SLP150 P0000 T00560022
KOKK 190656Z AUTO 17013KT 10SM FEW070 SCT090 OVC110 04/01 A2996 RMK AO2 SLP154 T00440011
KOKK 190556Z AUTO 17013KT 10SM FEW110 04/01 A2998 RMK AO2 SLP161 T00440006 10044 20022 56024
KOKK 190456Z AUTO 17015KT 10SM OVC060 04/01 A3000 RMK AO2 SLP169 T00440011 400561028
KOKK 190356Z AUTO 16017KT 10SM CLR 04/01 A3002 RMK AO2 SLP175 T00390006
KOKK 190256Z AUTO 15013KT 10SM CLR 03/00 A3006 RMK AO2 SLP188 T00330000 56025
KOKK 190156Z AUTO 14013KT 10SM CLR 03/00 A3007 RMK AO2 SLP194 T00280000
KOKK 190056Z AUTO 13009KT 10SM CLR 03/00 A3011 RMK AO2 SLP207 T00280000
KOKK 182356Z AUTO 13008KT 10SM CLR 03/00 A3013 RMK AO2 SLP215 T00280000 10056 20011 57020
KOKK 182256Z AUTO 14008KT 10SM CLR 04/01 A3015 RMK AO2 SLP221 T00440006
KOKK 182156Z AUTO 15012KT 10SM CLR 06/01 A3017 RMK AO2 SLP226 T00560006
KOKK 182056Z AUTO 15013KT 10SM CLR 05/01 A3019 RMK AO2 SLP234 T00500006 56037
KOKK 181956Z AUTO 14012KT 10SM CLR 04/01 A3022 RMK AO2 SLP243 T00440011
KOKK 181856Z AUTO 16009KT 10SM CLR 03/00 A3027 RMK AO2 SLP260 T00330000
KOKK 181822Z AUTO 16012KT 10SM SCT012 02/M01 A3029 RMK AO2 FZRANO
KOKK 181756Z AUTO 16011KT 10SM OVC012 01/M01 A3030 RMK AO2 SLP274 T00111011 10011 21028 58011 FZRANO
KOKK 181656Z AUTO 17014KT 9SM OVC010 00/M02 A3033 RMK AO2 SLP284 T00001022 FZRANO
KOKK 181556Z AUTO 17016G20KT 9SM OVC010 M01/M03 A3033 RMK AO2 SLP282 T10061028 FZRANO